Pioneer Point, California
Current Conditions -  °F | °C
As of 3:56 AM on Tuesday 21 Oct 2014 (Local Time) from KNID Reporting Station
Clear Clear  
Wind Chill: 57°   Ceiling: Unl
Heat Index: 57°   Visibility: 10mi
Dew Point: 37°   Wind: 5mph
Humidity: 47%   Direction: 250°WSW
Pressure: 29.87"   Gusts: NA
Location:  35.6496°N, 117.375°W
Report Text: KNID 211056Z AUTO 25004KT 10SM CLR 14/03 A2987 RMK AO2 SLP100 T01390028 $
Loading
Personal Weather Stations






























Interactive Weather Map
Tropical Storm Tracking
New forecast layout! Learn more

10-Day Weather Forecast

Advertisements
Track Severe Weather on mobile